createdAt,value
2023-04-06T00:02:11.296Z,13.85
2023-04-06T00:04:37.968Z,13.83
2023-04-06T00:07:04.723Z,13.82
2023-04-06T00:09:31.329Z,13.80
2023-04-06T00:11:58.891Z,13.79
2023-04-06T00:14:25.546Z,13.76
2023-04-06T00:16:52.123Z,13.76
2023-04-06T00:19:18.806Z,13.74
2023-04-06T00:21:45.695Z,13.72
2023-04-06T00:24:12.421Z,13.71
2023-04-06T00:26:39.181Z,13.69
2023-04-06T00:29:06.030Z,13.68
2023-04-06T00:31:32.718Z,13.65
2023-04-06T00:33:59.621Z,13.65
2023-04-06T00:36:26.791Z,13.63
2023-04-06T00:38:53.490Z,13.58
2023-04-06T00:41:21.679Z,13.58
2023-04-06T00:43:48.407Z,13.59
2023-04-06T00:46:15.124Z,13.57
2023-04-06T00:48:41.913Z,13.57
2023-04-06T00:51:08.570Z,13.54
2023-04-06T00:53:35.255Z,13.54
2023-04-06T00:56:02.885Z,13.52
2023-04-06T00:58:38.941Z,13.50
2023-04-06T01:01:07.935Z,13.49
2023-04-06T01:03:35.918Z,13.49
2023-04-06T01:06:02.793Z,13.47
2023-04-06T01:08:36.166Z,13.45
2023-04-06T01:11:28.853Z,13.41
2023-04-06T01:13:56.398Z,13.42
2023-04-06T01:16:27.304Z,13.38
2023-04-06T01:19:10.212Z,13.37
2023-04-06T01:21:37.980Z,13.35
2023-04-06T01:24:30.489Z,13.36
2023-04-06T01:27:13.246Z,13.34
2023-04-06T01:29:54.198Z,13.31
2023-04-06T01:32:53.370Z,13.26
2023-04-06T01:35:37.441Z,13.24
2023-04-06T01:38:16.287Z,13.22
2023-04-06T01:40:44.151Z,13.18
2023-04-06T01:43:11.158Z,13.20
2023-04-06T01:45:58.085Z,13.20
2023-04-06T01:48:30.096Z,13.14
2023-04-06T01:50:56.722Z,13.15
2023-04-06T01:53:29.426Z,13.12
2023-04-06T01:56:01.761Z,13.12
2023-04-06T01:58:34.649Z,13.09
2023-04-06T02:01:01.515Z,13.07
2023-04-06T02:03:34.214Z,13.07
2023-04-06T02:06:07.129Z,13.07
2023-04-06T02:08:38.267Z,13.04
2023-04-06T02:11:05.044Z,13.02
2023-04-06T02:13:38.832Z,13.03
2023-04-06T02:16:05.935Z,13.00
2023-04-06T02:18:32.738Z,12.98
2023-04-06T02:20:59.475Z,13.02
2023-04-06T02:23:26.535Z,12.96
2023-04-06T02:25:53.433Z,12.95
2023-04-06T02:28:19.992Z,12.97
2023-04-06T02:30:47.707Z,12.91
2023-04-06T02:33:14.540Z,12.92
2023-04-06T02:35:45.856Z,12.90
2023-04-06T02:38:12.800Z,12.88
2023-04-06T02:40:39.489Z,12.86
2023-04-06T02:43:17.988Z,12.86
2023-04-06T02:45:45.932Z,12.84
2023-04-06T02:48:13.016Z,12.84
2023-04-06T02:50:39.619Z,12.82
2023-04-06T02:53:07.918Z,12.82
2023-04-06T02:55:36.479Z,12.80
2023-04-06T02:58:03.681Z,12.79
2023-04-06T03:00:38.308Z,12.77
2023-04-06T03:03:05.099Z,12.81
2023-04-06T03:05:31.777Z,12.76
2023-04-06T03:07:58.478Z,12.76
2023-04-06T03:10:37.865Z,12.75
2023-04-06T03:13:04.865Z,12.76
2023-04-06T03:16:00.645Z,12.75
2023-04-06T03:18:27.886Z,12.75
2023-04-06T03:20:56.637Z,12.73
2023-04-06T03:23:29.250Z,12.70
2023-04-06T03:25:59.525Z,12.70
2023-04-06T03:28:26.334Z,12.70
2023-04-06T03:30:58.838Z,12.69
2023-04-06T03:33:51.757Z,12.69
2023-04-06T03:36:27.241Z,12.69
2023-04-06T03:38:56.051Z,12.69
2023-04-06T03:41:22.929Z,12.66
2023-04-06T03:43:57.061Z,12.64
2023-04-06T03:46:23.689Z,12.68
2023-04-06T03:48:53.401Z,12.64
2023-04-06T03:51:22.359Z,12.63
2023-04-06T03:53:49.079Z,12.63
2023-04-06T03:56:15.728Z,12.64
2023-04-06T03:58:42.283Z,12.63
2023-04-06T04:01:08.770Z,12.63
2023-04-06T04:03:35.374Z,12.60
2023-04-06T04:06:02.146Z,12.62
2023-04-06T04:08:28.968Z,12.60
2023-04-06T04:10:55.699Z,12.56
2023-04-06T04:13:23.003Z,12.58
2023-04-06T04:15:51.799Z,12.58
2023-04-06T04:18:18.417Z,12.57
2023-04-06T04:20:44.966Z,12.57
2023-04-06T04:23:13.217Z,12.55
2023-04-06T04:25:39.777Z,12.56
2023-04-06T04:28:06.934Z,12.54
2023-04-06T04:30:33.486Z,12.57
2023-04-06T04:33:00.113Z,12.54
2023-04-06T04:35:27.899Z,12.53
2023-04-06T04:37:54.498Z,12.54
2023-04-06T04:40:21.383Z,12.55
2023-04-06T04:42:53.068Z,12.51
2023-04-06T04:45:28.846Z,12.49
2023-04-06T04:47:56.818Z,12.50
2023-04-06T04:50:26.896Z,12.50
2023-04-06T04:52:57.262Z,12.47
2023-04-06T04:55:26.290Z,12.49
2023-04-06T04:57:55.876Z,12.47
2023-04-06T05:00:31.641Z,12.47
2023-04-06T05:03:00.298Z,12.45
2023-04-06T05:05:30.054Z,12.46
2023-04-06T05:07:57.640Z,12.47
2023-04-06T05:10:38.345Z,12.45
2023-04-06T05:13:05.538Z,12.45
2023-04-06T05:15:32.408Z,12.45
2023-04-06T05:18:05.992Z,12.46
2023-04-06T05:20:35.585Z,12.46
2023-04-06T05:23:02.572Z,12.44
2023-04-06T05:25:30.738Z,12.42
2023-04-06T05:28:03.318Z,12.43
2023-04-06T05:30:33.441Z,12.42
2023-04-06T05:33:00.584Z,12.41
2023-04-06T05:35:34.381Z,12.40
2023-04-06T05:38:11.290Z,12.40
2023-04-06T05:40:39.379Z,12.42
2023-04-06T05:43:09.092Z,12.42
2023-04-06T05:45:37.601Z,12.43
2023-04-06T05:48:07.060Z,12.40
2023-04-06T05:50:33.854Z,12.41
2023-04-06T05:53:01.283Z,12.40
2023-04-06T05:55:33.888Z,12.45
2023-04-06T05:58:14.103Z,12.43
2023-04-06T06:00:43.504Z,12.42
2023-04-06T06:03:11.484Z,12.41
2023-04-06T06:05:40.636Z,12.39
2023-04-06T06:08:12.160Z,12.37
2023-04-06T06:10:39.283Z,12.38
2023-04-06T06:13:07.422Z,12.38
2023-04-06T06:15:34.245Z,12.38
2023-04-06T06:18:02.743Z,12.39
2023-04-06T06:20:30.636Z,12.41
2023-04-06T06:23:00.912Z,12.41
2023-04-06T06:25:27.623Z,12.44
2023-04-06T06:27:54.346Z,12.43
2023-04-06T06:30:23.009Z,12.43
2023-04-06T06:32:51.126Z,12.41
2023-04-06T06:35:18.065Z,12.41
2023-04-06T06:37:44.844Z,12.41
2023-04-06T06:40:16.991Z,12.39
2023-04-06T06:42:44.650Z,12.40
2023-04-06T06:45:21.339Z,12.41
2023-04-06T06:47:48.476Z,12.39
2023-04-06T06:50:15.250Z,12.40
2023-04-06T06:52:43.062Z,12.38
2023-04-06T06:55:10.609Z,12.39
2023-04-06T06:57:37.860Z,12.38
2023-04-06T07:00:06.507Z,12.36
2023-04-06T07:02:34.887Z,12.37
2023-04-06T07:05:10.158Z,12.37
2023-04-06T07:07:43.340Z,12.36
2023-04-06T07:10:10.927Z,12.38
2023-04-06T07:12:38.677Z,12.39
2023-04-06T07:15:05.977Z,12.40
2023-04-06T07:17:33.622Z,12.71
2023-04-06T07:20:00.744Z,13.01
2023-04-06T07:22:27.490Z,13.29
2023-04-06T07:24:54.262Z,13.41
2023-04-06T07:27:20.926Z,13.54
2023-04-06T07:29:47.488Z,13.63
2023-04-06T07:32:14.258Z,13.65
2023-04-06T07:34:41.073Z,13.70
2023-04-06T07:37:07.907Z,13.82
2023-04-06T07:39:35.688Z,13.95
2023-04-06T07:42:02.531Z,14.14
2023-04-06T07:44:29.545Z,14.13
2023-04-06T07:46:57.327Z,14.13
2023-04-06T07:49:24.090Z,14.22
2023-04-06T07:51:51.111Z,14.31
2023-04-06T07:54:17.798Z,14.39
2023-04-06T07:56:45.270Z,14.41
2023-04-06T07:59:12.739Z,14.50
2023-04-06T08:01:39.413Z,14.59
2023-04-06T08:04:06.386Z,14.69
2023-04-06T08:06:33.177Z,14.73
2023-04-06T08:08:59.930Z,14.78
2023-04-06T08:11:27.771Z,14.81
2023-04-06T08:13:54.705Z,14.86
2023-04-06T08:16:21.456Z,14.90
2023-04-06T08:18:48.168Z,14.94
2023-04-06T08:21:14.743Z,14.98
2023-04-06T08:23:41.345Z,14.96
2023-04-06T08:26:07.918Z,14.96
2023-04-06T08:28:35.594Z,15.02
2023-04-06T08:31:08.229Z,15.05
2023-04-06T08:33:40.010Z,15.01
2023-04-06T08:36:13.846Z,15.26
2023-04-06T08:38:41.442Z,15.34
2023-04-06T08:41:12.003Z,15.41
2023-04-06T08:43:48.512Z,15.50
2023-04-06T08:46:15.616Z,15.55
2023-04-06T08:48:43.427Z,15.60
2023-04-06T08:51:10.880Z,15.63
2023-04-06T08:53:37.764Z,15.48
2023-04-06T08:56:05.017Z,15.49
2023-04-06T08:58:39.933Z,15.47
2023-04-06T09:01:11.519Z,15.45
2023-04-06T09:03:43.021Z,15.49
2023-04-06T09:06:10.441Z,15.46
2023-04-06T09:08:39.479Z,15.59
2023-04-06T09:11:06.017Z,15.67
2023-04-06T09:13:32.737Z,15.67
2023-04-06T09:16:00.164Z,15.70
2023-04-06T09:18:30.840Z,15.64
2023-04-06T09:21:07.035Z,15.63
2023-04-06T09:23:33.783Z,15.54
2023-04-06T09:26:09.200Z,15.57
2023-04-06T09:28:46.280Z,15.43
2023-04-06T09:31:14.118Z,15.47
2023-04-06T09:33:41.994Z,15.50
2023-04-06T09:36:10.693Z,15.46
2023-04-06T09:38:37.984Z,15.43
2023-04-06T09:41:04.809Z,15.41
2023-04-06T09:43:31.554Z,15.41
2023-04-06T09:45:58.767Z,15.35
2023-04-06T09:48:27.533Z,15.40
2023-04-06T09:51:00.610Z,15.35
2023-04-06T09:53:28.053Z,15.35
2023-04-06T09:55:58.563Z,15.39
2023-04-06T09:58:27.591Z,15.43
2023-04-06T10:01:04.069Z,15.37
2023-04-06T10:03:46.350Z,15.31
2023-04-06T10:06:14.369Z,15.33
2023-04-06T10:08:42.347Z,15.44
2023-04-06T10:11:10.370Z,15.34
2023-04-06T10:13:36.941Z,15.36
2023-04-06T10:16:03.890Z,15.37
2023-04-06T10:18:30.766Z,15.33
2023-04-06T10:21:01.702Z,15.38
2023-04-06T10:23:41.241Z,15.37
2023-04-06T10:26:13.292Z,15.35
2023-04-06T10:28:42.137Z,15.40
2023-04-06T10:31:08.698Z,15.40
2023-04-06T10:33:35.379Z,15.48
2023-04-06T10:36:11.386Z,15.53
2023-04-06T10:38:42.265Z,15.54
2023-04-06T10:41:09.996Z,15.53
2023-04-06T10:43:37.641Z,15.63
2023-04-06T10:46:05.168Z,15.57
2023-04-06T10:48:49.063Z,15.60
2023-04-06T10:51:16.276Z,15.63
2023-04-06T10:53:47.933Z,15.67
2023-04-06T10:56:15.833Z,15.66
2023-04-06T10:58:57.038Z,15.77
2023-04-06T11:01:24.804Z,15.87
2023-04-06T11:03:52.579Z,15.94
2023-04-06T11:06:19.837Z,15.82
2023-04-06T11:08:46.460Z,16.01
2023-04-06T11:11:17.168Z,16.00
2023-04-06T11:13:47.984Z,16.05
2023-04-06T11:16:18.719Z,16.07
2023-04-06T11:18:49.607Z,16.16
2023-04-06T11:21:16.352Z,16.18
2023-04-06T11:23:43.039Z,16.27
2023-04-06T11:26:13.756Z,16.20
2023-04-06T11:28:46.222Z,16.33
2023-04-06T11:31:12.861Z,16.36
2023-04-06T11:33:39.808Z,16.41
2023-04-06T11:36:07.279Z,16.46
2023-04-06T11:38:34.208Z,16.55
2023-04-06T11:41:02.332Z,16.62
2023-04-06T11:43:32.163Z,16.57
2023-04-06T11:46:03.332Z,16.47
2023-04-06T11:48:30.707Z,16.43
2023-04-06T11:51:02.157Z,16.39
2023-04-06T11:53:29.872Z,16.36
2023-04-06T11:55:56.853Z,16.37
2023-04-06T11:58:23.896Z,16.39
2023-04-06T12:00:50.490Z,16.40
2023-04-06T12:03:17.203Z,16.34
2023-04-06T12:05:44.934Z,16.36
2023-04-06T12:08:11.685Z,16.38
2023-04-06T12:10:38.339Z,16.41
2023-04-06T12:13:05.569Z,16.37
2023-04-06T12:15:32.427Z,16.36
2023-04-06T12:17:59.449Z,16.36
2023-04-06T12:20:27.636Z,16.36
2023-04-06T12:22:54.668Z,16.36
2023-04-06T12:25:21.536Z,16.38
2023-04-06T12:27:48.409Z,16.35
2023-04-06T12:30:15.234Z,16.32
2023-04-06T12:32:41.958Z,16.33
2023-04-06T12:35:09.973Z,16.34
2023-04-06T12:37:37.835Z,16.29
2023-04-06T12:40:05.223Z,16.30
2023-04-06T12:42:31.944Z,16.30
2023-04-06T12:44:58.492Z,16.32
2023-04-06T12:47:27.365Z,16.34
2023-04-06T12:49:55.025Z,16.36
2023-04-06T12:52:21.665Z,16.34
2023-04-06T12:54:50.136Z,16.35
2023-04-06T12:57:18.045Z,16.32
2023-04-06T12:59:45.745Z,16.29
2023-04-06T13:02:12.715Z,16.35
2023-04-06T13:04:39.509Z,16.43
2023-04-06T13:07:06.452Z,16.46
2023-04-06T13:09:33.111Z,16.43
2023-04-06T13:11:59.876Z,16.38
2023-04-06T13:14:26.668Z,16.40
2023-04-06T13:16:53.382Z,16.39
2023-04-06T13:19:20.028Z,16.41
2023-04-06T13:21:46.771Z,16.44
2023-04-06T13:24:15.572Z,16.44
2023-04-06T13:26:43.233Z,16.43
2023-04-06T13:29:09.958Z,16.57
2023-04-06T13:31:36.658Z,16.72
2023-04-06T13:34:03.615Z,16.79
2023-04-06T13:36:30.932Z,16.81
2023-04-06T13:38:57.654Z,16.90
2023-04-06T13:41:26.208Z,16.96
2023-04-06T13:43:53.106Z,16.94
2023-04-06T13:46:19.864Z,16.92
2023-04-06T13:48:47.972Z,16.80
2023-04-06T13:51:15.544Z,16.72
2023-04-06T13:53:42.288Z,16.72
2023-04-06T13:56:09.372Z,16.76
2023-04-06T13:58:37.238Z,16.79
2023-04-06T14:01:05.286Z,16.94
2023-04-06T14:03:32.618Z,17.00
2023-04-06T14:06:04.841Z,17.05
2023-04-06T14:08:36.014Z,17.05
2023-04-06T14:11:02.832Z,17.12
2023-04-06T14:13:29.525Z,17.12
2023-04-06T14:15:58.830Z,17.12
2023-04-06T14:18:25.768Z,17.16
2023-04-06T14:20:56.477Z,17.10
2023-04-06T14:23:23.392Z,17.07
2023-04-06T14:25:49.939Z,17.10
2023-04-06T14:28:17.293Z,17.06
2023-04-06T14:30:44.308Z,17.09
2023-04-06T14:33:10.840Z,17.08
2023-04-06T14:35:39.341Z,17.04
2023-04-06T14:38:06.385Z,17.03
2023-04-06T14:40:35.399Z,16.98
2023-04-06T14:43:01.888Z,17.02
2023-04-06T14:45:28.595Z,17.07
2023-04-06T14:47:55.355Z,16.89
2023-04-06T14:50:22.074Z,16.91
2023-04-06T14:52:48.748Z,16.90
2023-04-06T14:55:15.476Z,16.93
2023-04-06T14:57:41.970Z,16.95
2023-04-06T15:00:10.518Z,16.96
2023-04-06T15:02:38.060Z,16.91
2023-04-06T15:05:06.468Z,16.90
2023-04-06T15:07:33.233Z,16.85
2023-04-06T15:09:59.851Z,16.83
2023-04-06T15:12:26.698Z,16.88
2023-04-06T15:14:53.448Z,16.85
2023-04-06T15:17:20.173Z,16.89
2023-04-06T15:19:46.812Z,16.86
2023-04-06T15:22:13.516Z,16.86
2023-04-06T15:24:39.994Z,16.86
2023-04-06T15:27:07.598Z,16.80
2023-04-06T15:29:34.207Z,16.79
2023-04-06T15:32:00.802Z,16.80
2023-04-06T15:34:31.176Z,16.81
2023-04-06T15:37:02.372Z,16.82
2023-04-06T15:39:29.414Z,16.78
2023-04-06T15:41:57.371Z,16.84
2023-04-06T15:44:24.062Z,16.79
2023-04-06T15:46:51.937Z,16.84
2023-04-06T15:49:18.653Z,16.81
2023-04-06T15:51:45.346Z,16.79
2023-04-06T15:54:11.950Z,16.81
2023-04-06T15:56:38.473Z,16.89
2023-04-06T15:59:05.016Z,16.86
2023-04-06T16:01:31.820Z,16.85
2023-04-06T16:03:58.499Z,16.85
2023-04-06T16:06:27.404Z,16.90
2023-04-06T16:08:54.078Z,16.88
2023-04-06T16:11:21.400Z,16.85
2023-04-06T16:13:54.612Z,16.87
2023-04-06T16:16:22.413Z,16.87
2023-04-06T16:18:49.024Z,16.92
2023-04-06T16:21:17.225Z,16.96
2023-04-06T16:23:45.341Z,16.92
2023-04-06T16:26:13.155Z,16.92
2023-04-06T16:28:39.732Z,17.02
2023-04-06T16:31:06.808Z,17.12
2023-04-06T16:33:33.301Z,17.21
2023-04-06T16:35:59.997Z,17.19
2023-04-06T16:38:31.599Z,17.15
2023-04-06T16:41:04.330Z,17.13
2023-04-06T16:43:32.188Z,17.26
2023-04-06T16:45:58.915Z,17.24
2023-04-06T16:48:25.841Z,17.32
2023-04-06T16:50:52.524Z,17.38
2023-04-06T16:53:19.129Z,17.39
2023-04-06T16:55:46.028Z,17.41
2023-04-06T16:58:12.485Z,17.37
2023-04-06T17:00:39.970Z,17.32
2023-04-06T17:03:06.686Z,17.30
2023-04-06T17:05:34.834Z,17.29
2023-04-06T17:08:01.602Z,17.27
2023-04-06T17:10:33.297Z,17.35
2023-04-06T17:13:00.986Z,17.29
2023-04-06T17:15:29.621Z,17.34
2023-04-06T17:17:56.644Z,17.30
2023-04-06T17:20:23.380Z,17.26
2023-04-06T17:22:50.262Z,17.29
2023-04-06T17:25:17.129Z,17.26
2023-04-06T17:27:44.015Z,17.25
2023-04-06T17:30:11.719Z,17.27
2023-04-06T17:32:38.619Z,17.23
2023-04-06T17:35:05.709Z,17.22
2023-04-06T17:37:32.348Z,17.30
2023-04-06T17:39:59.203Z,17.20
2023-04-06T17:42:25.858Z,17.19
2023-04-06T17:44:53.215Z,17.14
2023-04-06T17:47:20.332Z,17.23
2023-04-06T17:49:47.067Z,17.27
2023-04-06T17:52:13.614Z,17.35
2023-04-06T17:54:40.434Z,17.43
2023-04-06T17:57:07.842Z,17.47
2023-04-06T17:59:34.856Z,17.52
2023-04-06T18:02:03.255Z,17.51
2023-04-06T18:04:30.169Z,17.47
2023-04-06T18:06:56.912Z,17.46
2023-04-06T18:09:23.508Z,17.45
2023-04-06T18:11:50.096Z,17.42
2023-04-06T18:14:16.626Z,17.43
2023-04-06T18:16:43.175Z,17.41
2023-04-06T18:19:09.781Z,17.43
2023-04-06T18:21:36.951Z,17.39
2023-04-06T18:24:05.391Z,17.36
2023-04-06T18:26:33.634Z,17.32
2023-04-06T18:29:00.587Z,17.36
2023-04-06T18:31:27.401Z,17.38
2023-04-06T18:33:54.781Z,17.37
2023-04-06T18:36:21.534Z,17.32
2023-04-06T18:38:48.491Z,17.34
2023-04-06T18:41:16.374Z,17.25
2023-04-06T18:43:42.939Z,17.30
2023-04-06T18:46:13.563Z,17.32
2023-04-06T18:48:40.859Z,17.32
2023-04-06T18:51:07.425Z,17.30
2023-04-06T18:53:33.933Z,17.34
2023-04-06T18:56:00.652Z,17.30
2023-04-06T18:58:27.654Z,17.35
2023-04-06T19:00:54.722Z,17.35
2023-04-06T19:03:22.110Z,17.35
2023-04-06T19:05:49.428Z,17.32
2023-04-06T19:08:16.075Z,17.31
2023-04-06T19:10:42.720Z,17.35
2023-04-06T19:13:09.651Z,17.29
2023-04-06T19:15:36.337Z,17.30
2023-04-06T19:18:03.419Z,17.34
2023-04-06T19:20:33.935Z,17.24
2023-04-06T19:23:00.764Z,17.34
2023-04-06T19:25:27.596Z,17.32
2023-04-06T19:27:54.500Z,17.31
2023-04-06T19:30:21.343Z,17.32
2023-04-06T19:32:48.002Z,17.32
2023-04-06T19:35:14.541Z,17.33
2023-04-06T19:37:43.275Z,17.38
2023-04-06T19:40:12.001Z,17.35
2023-04-06T19:42:38.905Z,17.36
2023-04-06T19:45:06.549Z,17.36
2023-04-06T19:47:34.900Z,17.35
2023-04-06T19:50:02.030Z,17.29
2023-04-06T19:52:29.544Z,17.31
2023-04-06T19:54:56.781Z,17.29
2023-04-06T19:57:23.485Z,17.36
2023-04-06T19:59:50.167Z,17.39
2023-04-06T20:02:17.034Z,17.41
2023-04-06T20:04:43.617Z,17.48
2023-04-06T20:07:10.244Z,17.40
2023-04-06T20:09:36.840Z,17.23
2023-04-06T20:12:03.512Z,17.20
2023-04-06T20:14:31.087Z,17.15
2023-04-06T20:17:01.574Z,17.12
2023-04-06T20:19:28.163Z,17.12
2023-04-06T20:21:54.804Z,17.12
2023-04-06T20:24:21.732Z,17.19
2023-04-06T20:26:48.866Z,17.23
2023-04-06T20:29:15.465Z,17.12
2023-04-06T20:31:42.005Z,16.98
2023-04-06T20:34:08.663Z,16.89
2023-04-06T20:36:35.833Z,16.80
2023-04-06T20:39:02.554Z,16.75
2023-04-06T20:41:29.348Z,16.67
2023-04-06T20:43:55.947Z,16.62
2023-04-06T20:46:22.615Z,16.55
2023-04-06T20:48:49.109Z,16.48
2023-04-06T20:51:23.273Z,16.46
2023-04-06T20:53:49.940Z,16.39
2023-04-06T20:56:16.741Z,16.35
2023-04-06T20:58:43.468Z,16.31
2023-04-06T21:01:17.609Z,16.29
2023-04-06T21:03:44.598Z,16.24
2023-04-06T21:06:11.444Z,16.18
2023-04-06T21:08:38.255Z,16.13
2023-04-06T21:11:06.257Z,16.10
2023-04-06T21:13:32.954Z,16.08
2023-04-06T21:15:59.730Z,16.03
2023-04-06T21:18:26.616Z,16.02
2023-04-06T21:20:53.436Z,16.00
2023-04-06T21:23:20.172Z,15.96
2023-04-06T21:25:46.736Z,15.90
2023-04-06T21:28:13.264Z,15.89
2023-04-06T21:30:39.918Z,15.83
2023-04-06T21:33:06.942Z,15.84
2023-04-06T21:35:33.703Z,15.81
2023-04-06T21:38:00.348Z,15.78
2023-04-06T21:40:27.158Z,15.76
2023-04-06T21:42:53.830Z,15.72
2023-04-06T21:45:20.415Z,15.69
2023-04-06T21:47:46.972Z,15.67
2023-04-06T21:50:13.739Z,15.63
2023-04-06T21:52:40.473Z,15.59
2023-04-06T21:55:07.324Z,15.57
2023-04-06T21:57:33.997Z,15.53
2023-04-06T22:00:00.844Z,15.51
2023-04-06T22:02:29.009Z,15.51
2023-04-06T22:04:56.096Z,15.50
2023-04-06T22:07:22.691Z,15.51
2023-04-06T22:09:52.771Z,15.48
2023-04-06T22:12:20.559Z,15.44
2023-04-06T22:14:47.270Z,15.45
2023-04-06T22:17:13.918Z,15.40
2023-04-06T22:19:40.886Z,15.38
2023-04-06T22:22:07.554Z,15.38
2023-04-06T22:24:34.170Z,15.36
2023-04-06T22:27:00.723Z,15.33
2023-04-06T22:29:27.255Z,15.30
2023-04-06T22:31:53.897Z,15.27
2023-04-06T22:34:21.876Z,15.26
2023-04-06T22:36:48.533Z,15.25
2023-04-06T22:39:15.187Z,15.24
2023-04-06T22:41:41.844Z,15.26
2023-04-06T22:44:08.469Z,15.21
2023-04-06T22:46:35.278Z,15.19
2023-04-06T22:49:03.820Z,15.17
2023-04-06T22:51:32.018Z,15.16
2023-04-06T22:53:58.515Z,15.13
2023-04-06T22:56:25.695Z,15.14
2023-04-06T22:58:52.482Z,15.12
2023-04-06T23:01:19.168Z,15.09
2023-04-06T23:03:45.917Z,15.07
2023-04-06T23:06:12.513Z,15.03
2023-04-06T23:08:39.171Z,15.04
2023-04-06T23:11:05.824Z,15.01
2023-04-06T23:13:32.352Z,15.00
2023-04-06T23:15:58.998Z,14.98
2023-04-06T23:18:25.735Z,14.99
2023-04-06T23:20:52.281Z,14.98
2023-04-06T23:23:18.849Z,14.96
2023-04-06T23:25:45.535Z,14.91
2023-04-06T23:28:12.197Z,14.88
2023-04-06T23:30:38.860Z,14.87
2023-04-06T23:33:05.719Z,14.87
2023-04-06T23:35:32.298Z,14.82
2023-04-06T23:37:59.519Z,14.80
2023-04-06T23:40:26.390Z,14.80
2023-04-06T23:42:52.848Z,14.76
2023-04-06T23:45:19.436Z,14.75
2023-04-06T23:47:46.069Z,14.73
2023-04-06T23:50:12.698Z,14.72
2023-04-06T23:52:39.227Z,14.72
2023-04-06T23:55:06.054Z,14.72
2023-04-06T23:57:32.700Z,14.71
